Historyczne dane pomiarowe

Dodano dane terminowe – wersja testowa.

Dane z okresu 1951-2019

Wersja bazy: 1.34 [2019-03-16, lista zmian], aktualizacja planowana na 2019-04-15

Dane meteo z obszaru Polski uzyskane na podstawie danych udostępnionych przez Instytut Meteorologii i Gospodarki Wodnej – Państwowy Instytut Badawczy.

 

Wybierz Datę:    

       

TemperaturaWilgotnośćWiatrCiśnienieOpadyŚniegCzas trwania zjawisk
 Stacja t tx tn tng RH VA  wxwx mslp ppp RRR   cm mm wxwxwxwxwxwxwx
1961-08-14 13.1 20.1 7.7--- 1.0 0.7---- 0.0------------
1961-08-13 12.7 19.2 11.8--- 5.7 3.0---- 10.5------------
1961-08-12 20.3 25.6 15.5--- 5.7 4.0---- 20.3------------
1961-08-11 24.7 33.5 17.5--- 0.0 3.7---- 0.0------------
1961-08-10 24.5 32.1 16.9--- 1.0 0.0---- 0.0------------
1961-08-09 22.1 30.1 15.1--- 3.3 2.0---- 0.4------------
1961-08-08 21.1 26.6 18.1--- 2.7 1.3---- 0.0------------
1961-08-07 23.9 30.3 15.6--- 0.0 3.0---- 0.0------------
1961-08-06 21.8 28.8 11.1--- 0.0 3.7---- 0.0------------
1961-08-05 18.6 24.4 13.5--- 2.7 1.3---- 0.0------------
1961-08-04 15.6 20.6 12.4--- 2.7 0.0---- 0.0------------
1961-08-03 17.4 23.2 11.8--- 7.7 1.3---- 3.6------------
1961-08-02 17.5 26.7 7.4--- 0.0 0.7---- 0.0------------
1961-08-01 14.9 22.1 8.9--- 4.7 0.7---- 0.0------------
1961-07-31 13.7 17.4 10.3--- 7.3 3.0---- 1.8------------
1961-07-30 11.4 13.3 10.5--- 8.0 5.0---- 22.2------------
1961-07-29 13.8 17.5 12.4--- 8.0 0.7---- 29.0------------
1961-07-28 17.8 25.2 15.3--- 4.3 2.7---- 13.5------------
1961-07-27 20.6 26.7 11.0--- 3.7 3.7---- 1.4------------
1961-07-26 15.5 22.4 10.4--- 2.3 1.0---- 0.0------------
1961-07-25 13.0 17.4 8.5--- 8.0 3.3---- 0.0------------
1961-07-24 14.4 18.9 12.3--- 8.0 2.0---- 0.0------------
1961-07-23 16.3 22.4 9.4--- 5.3 0.7---- 0.0------------
1961-07-22 14.7 19.6 11.8--- 7.0 3.3---- 0.6------------
1961-07-21 13.7 20.4 9.2--- 5.0 0.0---- 9.1------------
1961-07-20 13.5 19.0 7.3--- 6.7 0.7---- 29.2------------
1961-07-19 13.7 21.2 8.4--- 3.0 0.0---- 0.7------------
1961-07-18 12.9 20.2 7.0--- 0.0 2.0---- 0.0------------
1961-07-17 15.6 23.7 12.8--- 6.0 0.0---- 7.3------------
1961-07-16 16.7 22.6 13.0--- 1.0 2.0---- 0.0------------
1961-07-15 17.5 25.1 12.0--- 3.0 3.0---- 0.5------------
1961-07-14 13.5 19.9 10.9--- 4.0 1.3---- 1.8------------
1961-07-13 20.5 29.1 14.3--- 2.7 5.3---- 3.2------------
1961-07-12 20.4 26.9 8.4--- 2.7 3.3---- 7.2------------
1961-07-11 15.4 20.2 9.0--- 4.0 1.3---- 0.0------------
1961-07-10 14.0 19.8 10.2--- 6.3 1.7---- 3.0------------
1961-07-09 15.1 22.6 7.4--- 6.3 0.0---- 3.9------------
1961-07-08 13.7 20.5 7.5--- 1.0 0.7---- 0.0------------
1961-07-07 13.5 18.9 5.1--- 6.3 0.7---- 0.0------------
1961-07-06 11.3 17.4 6.4--- 1.7 2.7---- 0.0------------
1961-07-05 14.4 18.9 12.5--- 7.0 2.3---- 0.0------------
1961-07-04 21.4 31.0 11.7--- 5.0 0.7---- 19.1------------
1961-07-03 19.7 30.0 8.9--- 0.0 1.3---- 0.0------------
1961-07-02 18.5 32.9 9.4--- 0.0 0.0---- 0.0------------
1961-07-01 18.6 25.9 9.2--- 0.0 1.0---- 0.0------------
1961-06-30 16.0 22.4 12.2--- 1.0 0.7---- 0.0------------
1961-06-29 14.7 20.2 7.5--- 2.7 0.7---- 0.0------------
1961-06-28 13.7 22.0 11.0--- 5.3 2.7---- 7.2------------
1961-06-27 23.7 31.7 13.5--- 0.0 2.0---- 2.0------------
1961-06-26 22.0 30.4 12.0--- 3.3 1.3---- 3.0------------
1961-06-25 20.9 30.0 9.0--- 0.0 0.7---- 0.0------------
1961-06-24 17.5 25.3 10.4--- 4.3 1.0---- 0.0------------
1961-06-23 17.2 22.9 13.3--- 6.0 1.3---- 0.0------------
1961-06-22 18.8 25.3 10.0--- 0.0 1.7---- 9.0------------
1961-06-21 16.0 24.2 5.0--- 0.0 0.7---- 0.0------------
1961-06-20 14.7 20.4 12.0--- 1.3 2.0---- 0.0------------
1961-06-19 20.0 28.2 11.3--- 2.7 1.3---- 0.8------------
1961-06-18 17.9 26.3 7.0--- 0.0 0.7---- 0.0------------
1961-06-17 13.9 22.4 5.9--- 0.0 0.7---- 0.0------------
1961-06-16 13.3 19.6 7.9--- 3.7 0.7---- 0.0------------
233.8 ms

 

Źródłem pochodzenia danych jest Instytut Meteorologii i Gospodarki Wodnej – Państwowy Instytut Badawczy. Dane Instytutu Meteorologii i Gospodarki Wodnej – Państwowego Instytutu Badawczego zostały przetworzone.

Dane źródłowe można odnaleźć na stronie https://dane.imgw.pl